Peel: Past 24 Hour Conditions

 

Resolute Airport

12:00 AM CDT 16 April 2014
This table is a summary of hourly weather conditions for the past 24 hours.
Date / Time
(CDT)
Wind(knots) Conditions Visibility(km) Pressure(kPa) Air tempC) Relative humidity(%) Dew pointC) Wind Chill
16 April 2014
0:00 NW 3 Clear 24 101.8 -26 61 -31 -31
15 April 2014
23:00 WNW 8 Mainly Clear 24 101.8 -26 60 -32 -37
22:00 WNW 4 Mainly Sunny 24 101.8 -25 62 -30 -32
21:00 NNW 11 Mainly Sunny 24 101.8 -24 65 -29 -36
20:00 NNW 10 Sunny 19 101.8 -23 65 -28 -34
19:00 NNW 10 Sunny 19 101.9 -22 64 -27 -33
18:00 N 12 Sunny 24 101.9 -21 61 -27 -33
17:00 N 17 Sunny 24 101.8 -20 64 -26 -33
16:00 N 12 Sunny 24 101.9 -20 63 -25 -31
15:00 NNW 14 Sunny 24 101.8 -18 66 -23 -30
14:00 WNW 10 Light Snow 16 101.8 -17 76 -20 -26
13:00 NW 11 Mainly Sunny 24 101.8 -17 75 -21 -27
12:00 WNW 11 Mainly Sunny 24 101.8 -17 74 -21 -27
11:00 WNW 10 Light Snow 15 101.8 -17 76 -21 -27
10:00 WNW 5 Light Snow 13 101.8 -18 74 -21 -24
9:00 WNW 7 Light Snow 6 101.8 -18 73 -22 -26
8:00 WNW 7 Light Snow 4 101.8 -19 75 -22 -27
7:00 W 8 Light Snow 24 101.8 -18 74 -22 -27
6:00 W 6 Light Snow 19 101.8 -19 73 -22 -26
5:00 NW 7 Light Snow 16 101.8 -19 74 -22 -27
4:00 NW 4 Mostly Cloudy 24 101.8 -20 72 -24 -26
3:00 NW 6 Mostly Cloudy 24 101.8 -20 71 -23 -27
2:00 W 10 Mainly Clear 24 101.9 -20 73 -24 -31
1:00 WNW 6 Clear 24 101.9 -21 73 -25 -29
0:00 W 7 Mainly Clear 24 101.9 -21 72 -25 -30
 
Map of Arctic - Eastern Arctic marine weather areas Baker Lake Airport Chesterfield Inlet Airport Coral Harbour Airport Gjoa Haven Airport Kugaaruk Airport Rankin Inlet Airport Shepherd Bay Airport Whale Cove Airport Arctic Bay Brevoort Island Qikiqtarjuaq Airport Cape Dorset Airport Cape Dyer Cape Hooper Clyde Airport Grise Fiord Airport Hall Beach Airport Igloolik Airport Iqaluit Airport Longstaff Bluff Pangnirtung Airport Pond Inlet Airport Repulse Bay Airport Resolute Airport Resolution Island Rowley Island Airport Taloyoak Airport Wager Bay Akulivik Airport Ivujivik Airport Puvirnituq Airport Kangiqsujuaq Airport Kangirsuk Airport Quaqtaq Airport Tasiujaq Airport Cape Kakkiviak Cape Kiglapait Nain Airport Saglek Cape Mercy Kimmirut Airport Aupaluk Airport Salluit Airport Kangiqsualujjuaq Airport Fort Ross
Legend: buoyBuoy land stationLand Station